Time;durP1;ratioP1;P1;durP2;ratioP2;P2;SDS_P1;SDS_P2;PMS_P1;PMS_P2;Temp;Humidity;BMP_temperature;BMP_pressure;BME280_temperature;BME280_humidity;BME280_pressure;Samples;Min_cycle;Max_cycle;Signal;HPM_P1;HPM_P2
2023/11/05 00:01:46;;;;;;;0.88;0.60;;;;;;;;;;5034110;28;20409;-81
2023/11/05 00:04:12;;;;;;;1.00;0.68;;;;;;;;;;5036390;28;20876;-82
2023/11/05 00:06:38;;;;;;;1.30;0.53;;;;;;;;;;5034786;28;20431;-81
2023/11/05 00:09:04;;;;;;;1.42;0.50;;;;;;;;;;5036606;28;20438;-81
2023/11/05 00:11:30;;;;;;;0.40;0.32;;;;;;;;;;5036315;28;20418;-81
2023/11/05 00:13:57;;;;;;;1.20;0.40;;;;;;;;;;5035970;28;20391;-80
2023/11/05 00:16:23;;;;;;;0.73;0.40;;;;;;;;;;5036702;28;20406;-79
2023/11/05 00:18:49;;;;;;;0.70;0.40;;;;;;;;;;5036999;28;20505;-79
2023/11/05 00:21:18;;;;;;;0.40;0.30;;;;;;;;;;5036261;28;20861;-79
2023/11/05 00:23:44;;;;;;;0.35;0.28;;;;;;;;;;5035756;28;20415;-80
2023/11/05 00:26:10;;;;;;;1.00;0.30;;;;;;;;;;5035085;28;20806;-79
2023/11/05 00:28:36;;;;;;;0.40;0.30;;;;;;;;;;5036119;28;20470;-79
2023/11/05 00:31:03;;;;;;;0.93;0.30;;;;;;;;;;5035398;28;20422;-79
2023/11/05 00:33:28;;;;;;;0.90;0.30;;;;;;;;;;5035850;28;20414;-79
2023/11/05 00:35:57;;;;;;;0.87;0.50;;;;;;;;;;5036086;28;20406;-80
2023/11/05 00:38:23;;;;;;;1.30;0.60;;;;;;;;;;5035876;28;20395;-79
2023/11/05 00:40:49;;;;;;;0.70;0.57;;;;;;;;;;5035029;28;20494;-79
2023/11/05 00:43:15;;;;;;;0.88;0.60;;;;;;;;;;5035578;28;20442;-79
2023/11/05 00:45:41;;;;;;;0.77;0.60;;;;;;;;;;5035658;28;20447;-79
2023/11/05 00:48:07;;;;;;;0.68;0.68;;;;;;;;;;5035263;28;20437;-79
2023/11/05 00:50:33;;;;;;;0.68;0.60;;;;;;;;;;5035171;28;20419;-80
2023/11/05 00:52:59;;;;;;;0.60;0.60;;;;;;;;;;5034466;28;20403;-80
2023/11/05 00:55:25;;;;;;;0.63;0.60;;;;;;;;;;5034626;28;20395;-80
2023/11/05 00:57:51;;;;;;;0.95;0.68;;;;;;;;;;5035840;28;20383;-79
2023/11/05 01:00:17;;;;;;;1.42;0.50;;;;;;;;;;5019035;28;20399;-79
2023/11/05 01:02:44;;;;;;;0.93;0.50;;;;;;;;;;5021628;28;20769;-79
2023/11/05 01:05:10;;;;;;;0.75;0.50;;;;;;;;;;5035604;28;20849;-79
2023/11/05 01:07:36;;;;;;;0.80;0.40;;;;;;;;;;5035741;28;20395;-79
2023/11/05 01:10:02;;;;;;;0.68;0.35;;;;;;;;;;5035451;28;20418;-79
2023/11/05 01:12:28;;;;;;;0.67;0.40;;;;;;;;;;5035592;28;20419;-79
2023/11/05 01:14:55;;;;;;;0.40;0.30;;;;;;;;;;5036075;28;20402;-79
2023/11/05 01:17:21;;;;;;;1.27;0.40;;;;;;;;;;5035941;28;20853;-79
2023/11/05 01:19:47;;;;;;;1.07;0.40;;;;;;;;;;5035641;28;20749;-79
2023/11/05 01:22:13;;;;;;;0.40;0.40;;;;;;;;;;5034943;28;20923;-79
2023/11/05 01:24:39;;;;;;;1.00;0.40;;;;;;;;;;5035437;28;20383;-79
2023/11/05 01:27:05;;;;;;;0.88;0.40;;;;;;;;;;5035850;28;20410;-79
2023/11/05 01:29:31;;;;;;;0.68;0.55;;;;;;;;;;5035991;28;20411;-79
2023/11/05 01:31:57;;;;;;;0.88;0.40;;;;;;;;;;5035901;28;20395;-79
2023/11/05 01:34:23;;;;;;;0.73;0.40;;;;;;;;;;5035984;28;20387;-79
2023/11/05 01:36:49;;;;;;;2.60;0.40;;;;;;;;;;5035614;28;20402;-79
2023/11/05 01:39:15;;;;;;;0.50;0.50;;;;;;;;;;5036067;28;20741;-79
2023/11/05 01:41:42;;;;;;;0.77;0.57;;;;;;;;;;5022224;28;20401;-79
2023/11/05 01:44:08;;;;;;;0.50;0.50;;;;;;;;;;5015939;28;20925;-79
2023/11/05 01:46:34;;;;;;;0.68;0.32;;;;;;;;;;5016284;28;20389;-79
2023/11/05 01:49:00;;;;;;;1.48;0.30;;;;;;;;;;5016129;28;20464;-79
2023/11/05 01:51:29;;;;;;;0.55;0.40;;;;;;;;;;5015814;28;20377;-79
2023/11/05 01:53:55;;;;;;;0.53;0.30;;;;;;;;;;4997917;28;20405;-79
2023/11/05 01:56:22;;;;;;;0.52;0.40;;;;;;;;;;5016462;28;20384;-79
2023/11/05 01:58:49;;;;;;;0.32;0.30;;;;;;;;;;5015951;28;20455;-79
2023/11/05 02:01:15;;;;;;;1.30;0.30;;;;;;;;;;5015715;28;20472;-79
2023/11/05 02:03:41;;;;;;;0.20;0.20;;;;;;;;;;5016847;28;20383;-79
2023/11/05 02:06:08;;;;;;;0.30;0.22;;;;;;;;;;5035593;28;20391;-79
2023/11/05 02:08:34;;;;;;;0.50;0.22;;;;;;;;;;5035213;28;20744;-79
2023/11/05 02:11:00;;;;;;;1.20;0.30;;;;;;;;;;5035325;28;20418;-79
2023/11/05 02:13:26;;;;;;;0.30;0.30;;;;;;;;;;5035588;28;20841;-79
2023/11/05 02:15:52;;;;;;;0.80;0.52;;;;;;;;;;5035436;28;20441;-79
2023/11/05 02:18:18;;;;;;;0.30;0.30;;;;;;;;;;5035379;28;20379;-79
2023/11/05 02:20:45;;;;;;;0.65;0.50;;;;;;;;;;5035335;28;20379;-79
2023/11/05 02:23:17;;;;;;;0.40;0.40;;;;;;;;;;5035216;28;20437;-79
2023/11/05 02:25:44;;;;;;;0.60;0.43;;;;;;;;;;5036141;28;20611;-79
2023/11/05 02:28:10;;;;;;;0.93;0.70;;;;;;;;;;5034939;28;20725;-79
2023/11/05 02:30:36;;;;;;;0.50;0.40;;;;;;;;;;5035224;28;20419;-79
2023/11/05 02:33:03;;;;;;;2.20;0.40;;;;;;;;;;5035169;28;20394;-79
2023/11/05 02:35:29;;;;;;;0.43;0.40;;;;;;;;;;5035378;28;20394;-79
2023/11/05 02:37:55;;;;;;;0.40;0.40;;;;;;;;;;5038858;28;20572;-79
2023/11/05 02:40:21;;;;;;;0.60;0.50;;;;;;;;;;5035359;28;20391;-81
2023/11/05 02:42:47;;;;;;;0.40;0.40;;;;;;;;;;5033509;28;20784;-80
2023/11/05 02:45:13;;;;;;;0.68;0.40;;;;;;;;;;5032803;28;20470;-79
2023/11/05 02:47:39;;;;;;;0.28;0.28;;;;;;;;;;5032041;28;20421;-79
2023/11/05 02:50:06;;;;;;;0.50;0.50;;;;;;;;;;5032387;28;20473;-79
2023/11/05 02:52:32;;;;;;;0.43;0.40;;;;;;;;;;5015273;28;20379;-79
2023/11/05 02:55:00;;;;;;;1.23;0.40;;;;;;;;;;5024002;28;20791;-79
2023/11/05 02:57:26;;;;;;;0.80;0.45;;;;;;;;;;5012563;28;20403;-80
2023/11/05 02:59:52;;;;;;;1.10;0.47;;;;;;;;;;5012587;28;20874;-79
2023/11/05 03:02:18;;;;;;;0.60;0.40;;;;;;;;;;5013414;28;20389;-79
2023/11/05 03:04:45;;;;;;;0.50;0.40;;;;;;;;;;5014398;28;20478;-80
2023/11/05 03:07:16;;;;;;;0.35;0.35;;;;;;;;;;5013881;28;20385;-79
2023/11/05 03:09:43;;;;;;;0.77;0.50;;;;;;;;;;5013813;28;20412;-79
2023/11/05 03:12:11;;;;;;;0.30;0.30;;;;;;;;;;5013371;28;20389;-79
2023/11/05 03:14:37;;;;;;;0.47;0.30;;;;;;;;;;5013245;28;20385;-79
2023/11/05 03:17:03;;;;;;;0.88;0.30;;;;;;;;;;4997340;28;20409;-79
2023/11/05 03:19:29;;;;;;;0.47;0.40;;;;;;;;;;5016582;28;20383;-79
2023/11/05 03:21:55;;;;;;;0.45;0.30;;;;;;;;;;5016706;28;20874;-80
2023/11/05 03:24:22;;;;;;;0.70;0.47;;;;;;;;;;5016332;28;20447;-80
2023/11/05 03:26:48;;;;;;;1.00;0.50;;;;;;;;;;5017281;28;20393;-80
2023/11/05 03:29:15;;;;;;;0.95;0.40;;;;;;;;;;5035583;28;20924;-80
2023/11/05 03:31:42;;;;;;;1.00;0.30;;;;;;;;;;5034739;28;20423;-80
2023/11/05 03:34:08;;;;;;;0.40;0.40;;;;;;;;;;5035294;28;21008;-80
2023/11/05 03:36:34;;;;;;;0.57;0.57;;;;;;;;;;5018058;28;20486;-80
2023/11/05 03:39:00;;;;;;;1.43;0.40;;;;;;;;;;5036095;28;20709;-79
2023/11/05 03:41:26;;;;;;;0.50;0.40;;;;;;;;;;5036187;28;20714;-79
2023/11/05 03:43:52;;;;;;;0.38;0.30;;;;;;;;;;5036170;28;20501;-79
2023/11/05 03:46:18;;;;;;;0.80;0.40;;;;;;;;;;5020477;28;20967;-79
2023/11/05 03:48:45;;;;;;;1.02;0.40;;;;;;;;;;5016243;28;20475;-79
2023/11/05 03:51:17;;;;;;;0.55;0.50;;;;;;;;;;5016084;28;20425;-79
2023/11/05 03:53:45;;;;;;;1.42;0.60;;;;;;;;;;5016216;28;20392;-79
2023/11/05 03:56:11;;;;;;;0.87;0.50;;;;;;;;;;5016050;28;20395;-79
2023/11/05 03:58:37;;;;;;;0.50;0.40;;;;;;;;;;5016477;28;20424;-79
2023/11/05 04:01:04;;;;;;;0.90;0.50;;;;;;;;;;5016246;28;20435;-79
2023/11/05 04:03:31;;;;;;;0.40;0.40;;;;;;;;;;5016709;28;20396;-79
2023/11/05 04:05:57;;;;;;;1.08;0.40;;;;;;;;;;5017162;28;20435;-79
2023/11/05 04:08:26;;;;;;;1.02;0.60;;;;;;;;;;5017201;28;20868;-79
2023/11/05 04:10:52;;;;;;;0.65;0.60;;;;;;;;;;5031704;28;20422;-79
2023/11/05 04:13:18;;;;;;;2.58;0.40;;;;;;;;;;5036730;28;20387;-80
2023/11/05 04:15:44;;;;;;;1.50;0.40;;;;;;;;;;5036427;28;20382;-80
2023/11/05 04:18:11;;;;;;;1.20;0.57;;;;;;;;;;5036877;28;20730;-80
2023/11/05 04:20:37;;;;;;;0.95;0.60;;;;;;;;;;5036435;28;20375;-80
2023/11/05 04:23:03;;;;;;;1.60;0.55;;;;;;;;;;5036851;28;20390;-80
2023/11/05 04:25:29;;;;;;;0.60;0.60;;;;;;;;;;5036341;28;20383;-80
2023/11/05 04:27:55;;;;;;;0.85;0.60;;;;;;;;;;5036509;28;20387;-80
2023/11/05 04:30:21;;;;;;;0.80;0.47;;;;;;;;;;5036982;28;20409;-80
2023/11/05 04:32:47;;;;;;;1.95;0.60;;;;;;;;;;5036501;28;20391;-80
2023/11/05 04:35:13;;;;;;;1.90;0.50;;;;;;;;;;5037047;28;20386;-80
2023/11/05 04:37:40;;;;;;;1.42;0.43;;;;;;;;;;5037042;28;20418;-80
2023/11/05 04:40:06;;;;;;;2.85;0.50;;;;;;;;;;5036752;28;20406;-80
2023/11/05 04:42:32;;;;;;;1.83;0.50;;;;;;;;;;5036802;28;20379;-79
2023/11/05 04:44:58;;;;;;;1.80;0.60;;;;;;;;;;5037058;28;20387;-81
2023/11/05 04:47:25;;;;;;;0.85;0.40;;;;;;;;;;5036911;28;20414;-80
2023/11/05 04:49:51;;;;;;;1.05;0.50;;;;;;;;;;5037061;28;20418;-79
2023/11/05 04:52:17;;;;;;;1.15;0.47;;;;;;;;;;5036112;28;20740;-79
2023/11/05 04:54:44;;;;;;;1.33;0.60;;;;;;;;;;5031394;28;20381;-79
2023/11/05 04:57:10;;;;;;;1.98;0.60;;;;;;;;;;5017292;28;20392;-79
2023/11/05 04:59:39;;;;;;;0.93;0.32;;;;;;;;;;5016551;28;20396;-79
2023/11/05 05:02:08;;;;;;;1.70;0.40;;;;;;;;;;5016811;28;20773;-79
2023/11/05 05:04:34;;;;;;;0.68;0.32;;;;;;;;;;5016682;28;20385;-79
2023/11/05 05:07:00;;;;;;;1.80;0.47;;;;;;;;;;5016411;28;20719;-79
2023/11/05 05:09:26;;;;;;;1.33;0.32;;;;;;;;;;5016587;28;20424;-79
2023/11/05 05:11:52;;;;;;;1.03;0.37;;;;;;;;;;5017058;28;20395;-79
2023/11/05 05:14:18;;;;;;;1.33;0.52;;;;;;;;;;5035972;28;20410;-79
2023/11/05 05:16:44;;;;;;;0.85;0.40;;;;;;;;;;5036461;28;20419;-79
2023/11/05 05:19:10;;;;;;;3.07;0.63;;;;;;;;;;5036061;28;20387;-79
2023/11/05 05:21:46;;;;;;;1.08;0.40;;;;;;;;;;5036576;28;20379;-79
2023/11/05 05:24:12;;;;;;;1.55;0.45;;;;;;;;;;5034483;28;20474;-79
2023/11/05 05:26:38;;;;;;;2.13;0.57;;;;;;;;;;5036276;28;20903;-79
2023/11/05 05:29:05;;;;;;;1.70;0.60;;;;;;;;;;5035441;28;20494;-79
2023/11/05 05:31:31;;;;;;;1.33;0.50;;;;;;;;;;5036414;28;20419;-79
2023/11/05 05:33:58;;;;;;;1.27;0.60;;;;;;;;;;5036212;28;20383;-79
2023/11/05 05:36:24;;;;;;;1.10;0.40;;;;;;;;;;5035457;28;20752;-79
2023/11/05 05:38:50;;;;;;;1.20;0.40;;;;;;;;;;5034969;28;20371;-79
2023/11/05 05:41:16;;;;;;;1.65;0.60;;;;;;;;;;5035639;28;20383;-79
2023/11/05 05:43:42;;;;;;;1.43;0.60;;;;;;;;;;5035810;28;20387;-79
2023/11/05 05:46:09;;;;;;;0.98;0.30;;;;;;;;;;5035224;28;20375;-79
2023/11/05 05:48:37;;;;;;;0.77;0.32;;;;;;;;;;5035814;28;20383;-79
2023/11/05 05:51:07;;;;;;;1.13;0.40;;;;;;;;;;5035590;28;20514;-79
2023/11/05 05:53:33;;;;;;;1.50;0.40;;;;;;;;;;5034155;28;20833;-79
2023/11/05 05:55:59;;;;;;;1.10;0.43;;;;;;;;;;5036056;28;20405;-79
2023/11/05 05:58:25;;;;;;;1.25;0.40;;;;;;;;;;5036247;28;20740;-79
2023/11/05 06:00:51;;;;;;;2.30;0.40;;;;;;;;;;5039614;28;20441;-80
2023/11/05 06:03:17;;;;;;;1.05;0.40;;;;;;;;;;5035992;28;20387;-80
2023/11/05 06:05:43;;;;;;;1.75;0.45;;;;;;;;;;5034212;28;20387;-79
2023/11/05 06:08:09;;;;;;;1.85;0.45;;;;;;;;;;5027487;28;20471;-80
2023/11/05 06:10:35;;;;;;;0.95;0.50;;;;;;;;;;5033823;28;20497;-79
2023/11/05 06:13:01;;;;;;;0.70;0.30;;;;;;;;;;5033720;28;20422;-80
2023/11/05 06:15:27;;;;;;;1.50;0.50;;;;;;;;;;5033760;28;20375;-80
2023/11/05 06:17:53;;;;;;;0.93;0.40;;;;;;;;;;5033445;28;20436;-79
2023/11/05 06:20:20;;;;;;;1.38;0.38;;;;;;;;;;5033934;28;20399;-80
2023/11/05 06:22:46;;;;;;;1.10;0.50;;;;;;;;;;5030209;28;20400;-79
2023/11/05 06:25:12;;;;;;;0.90;0.40;;;;;;;;;;5014282;28;20388;-79
2023/11/05 06:27:38;;;;;;;1.60;0.40;;;;;;;;;;5014196;28;20468;-79
2023/11/05 06:30:07;;;;;;;1.60;0.30;;;;;;;;;;5014220;28;20408;-79
2023/11/05 06:32:33;;;;;;;1.13;0.45;;;;;;;;;;5014944;28;20416;-79
2023/11/05 06:34:59;;;;;;;0.95;0.38;;;;;;;;;;5014068;28;20381;-79
2023/11/05 06:37:30;;;;;;;1.30;0.30;;;;;;;;;;5014239;28;20385;-79
2023/11/05 06:39:56;;;;;;;1.15;0.32;;;;;;;;;;5013780;28;20932;-79
2023/11/05 06:42:22;;;;;;;1.52;0.50;;;;;;;;;;5014105;28;20483;-79
2023/11/05 06:44:48;;;;;;;0.80;0.40;;;;;;;;;;5013702;28;20435;-79
2023/11/05 06:47:14;;;;;;;1.23;0.40;;;;;;;;;;5014216;28;20413;-79
2023/11/05 06:49:40;;;;;;;1.75;0.60;;;;;;;;;;5014690;28;20403;-79
2023/11/05 06:52:07;;;;;;;0.88;0.45;;;;;;;;;;5018240;28;20435;-79
2023/11/05 06:54:33;;;;;;;1.02;0.40;;;;;;;;;;5018545;28;20416;-79
2023/11/05 06:56:59;;;;;;;1.70;0.40;;;;;;;;;;5017942;28;20393;-79
2023/11/05 06:59:25;;;;;;;0.40;0.20;;;;;;;;;;5025553;28;20390;-79
2023/11/05 07:01:51;;;;;;;1.02;0.30;;;;;;;;;;5037692;28;20859;-79
2023/11/05 07:04:18;;;;;;;1.00;0.40;;;;;;;;;;5037647;28;20437;-79
2023/11/05 07:06:45;;;;;;;1.65;0.40;;;;;;;;;;5037354;28;20794;-79
2023/11/05 07:09:12;;;;;;;0.60;0.30;;;;;;;;;;5037298;28;20380;-79
2023/11/05 07:11:38;;;;;;;1.27;0.30;;;;;;;;;;5038181;28;20411;-79
2023/11/05 07:14:04;;;;;;;0.80;0.40;;;;;;;;;;5038246;28;20903;-79
2023/11/05 07:16:30;;;;;;;1.45;0.30;;;;;;;;;;5037651;28;20394;-79
2023/11/05 07:18:56;;;;;;;0.70;0.20;;;;;;;;;;5037058;28;20483;-79
2023/11/05 07:21:22;;;;;;;0.80;0.32;;;;;;;;;;5020625;28;20817;-79
2023/11/05 07:23:48;;;;;;;1.48;0.50;;;;;;;;;;5037846;28;20430;-79
2023/11/05 07:26:14;;;;;;;1.70;0.50;;;;;;;;;;5029565;28;20400;-80
2023/11/05 07:28:40;;;;;;;1.10;0.40;;;;;;;;;;5017839;28;20388;-81
2023/11/05 07:31:07;;;;;;;0.40;0.20;;;;;;;;;;5000793;28;20416;-81
2023/11/05 07:33:33;;;;;;;0.70;0.28;;;;;;;;;;5017718;28;20419;-81
2023/11/05 07:36:00;;;;;;;0.90;0.30;;;;;;;;;;5016867;28;20404;-81
2023/11/05 07:38:26;;;;;;;0.90;0.30;;;;;;;;;;5017142;28;20921;-81
2023/11/05 07:40:54;;;;;;;0.43;0.30;;;;;;;;;;5017734;28;20393;-81
2023/11/05 07:43:20;;;;;;;0.85;0.30;;;;;;;;;;5018049;28;20802;-81
2023/11/05 07:45:46;;;;;;;0.60;0.20;;;;;;;;;;5000305;28;20420;-81
2023/11/05 07:48:12;;;;;;;0.80;0.20;;;;;;;;;;5018374;28;20416;-81
2023/11/05 07:50:41;;;;;;;0.43;0.20;;;;;;;;;;5034659;28;20924;-80
2023/11/05 07:53:07;;;;;;;0.68;0.20;;;;;;;;;;5037505;28;20387;-80
2023/11/05 07:55:33;;;;;;;0.77;0.20;;;;;;;;;;5037748;28;20895;-80
2023/11/05 07:57:59;;;;;;;0.32;0.20;;;;;;;;;;5037328;28;20395;-80
2023/11/05 08:00:25;;;;;;;0.30;0.30;;;;;;;;;;5026464;28;20397;-80
2023/11/05 08:02:51;;;;;;;0.70;0.30;;;;;;;;;;5016751;28;20467;-80
2023/11/05 08:05:17;;;;;;;0.57;0.38;;;;;;;;;;5018010;28;20486;-81
2023/11/05 08:07:43;;;;;;;0.68;0.47;;;;;;;;;;5017800;28;20835;-80
2023/11/05 08:10:09;;;;;;;0.68;0.50;;;;;;;;;;5016997;28;20432;-80
2023/11/05 08:12:35;;;;;;;0.95;0.82;;;;;;;;;;5018088;28;20400;-81
2023/11/05 08:15:01;;;;;;;0.87;0.60;;;;;;;;;;5017340;28;20419;-81
2023/11/05 08:17:28;;;;;;;0.57;0.20;;;;;;;;;;5017729;28;20427;-80
2023/11/05 08:19:54;;;;;;;0.23;0.20;;;;;;;;;;5017693;28;20416;-80
2023/11/05 08:22:20;;;;;;;1.60;0.35;;;;;;;;;;5017816;28;20472;-80
2023/11/05 08:24:47;;;;;;;0.40;0.22;;;;;;;;;;5017991;28;20403;-80
2023/11/05 08:27:16;;;;;;;0.30;0.20;;;;;;;;;;5019204;28;20464;-81
2023/11/05 08:29:45;;;;;;;0.45;0.30;;;;;;;;;;5019043;28;20413;-80
2023/11/05 08:32:13;;;;;;;0.30;0.20;;;;;;;;;;5017471;28;20397;-83
2023/11/05 08:34:40;;;;;;;0.68;0.30;;;;;;;;;;5019119;28;20850;-80
2023/11/05 08:37:07;;;;;;;0.40;0.30;;;;;;;;;;5018488;28;20958;-80
2023/11/05 08:39:33;;;;;;;0.73;0.40;;;;;;;;;;5016709;28;20380;-80
2023/11/05 08:41:59;;;;;;;0.43;0.30;;;;;;;;;;5017567;28;20408;-81
2023/11/05 08:44:25;;;;;;;1.03;0.73;;;;;;;;;;5016869;28;20397;-81
2023/11/05 08:46:51;;;;;;;0.90;0.20;;;;;;;;;;5017558;28;20396;-81
2023/11/05 08:49:17;;;;;;;0.93;0.32;;;;;;;;;;5016478;28;20389;-81
2023/11/05 08:51:44;;;;;;;0.32;0.30;;;;;;;;;;5017429;28;20389;-81
2023/11/05 08:54:11;;;;;;;1.00;0.40;;;;;;;;;;5017594;28;20389;-80
2023/11/05 08:56:39;;;;;;;0.73;0.30;;;;;;;;;;5017398;28;20716;-81
2023/11/05 08:59:05;;;;;;;0.65;0.30;;;;;;;;;;5017691;28;20373;-80
2023/11/05 09:01:31;;;;;;;0.90;0.30;;;;;;;;;;5020493;28;20427;-80
2023/11/05 09:03:58;;;;;;;0.90;0.38;;;;;;;;;;5016886;28;20395;-81
2023/11/05 09:06:24;;;;;;;0.47;0.28;;;;;;;;;;4999624;28;20425;-81
2023/11/05 09:08:50;;;;;;;0.32;0.20;;;;;;;;;;5017187;28;20393;-80
2023/11/05 09:11:17;;;;;;;0.22;0.20;;;;;;;;;;5017096;28;20487;-81
2023/11/05 09:13:43;;;;;;;0.50;0.20;;;;;;;;;;5015314;28;20881;-80
2023/11/05 09:16:10;;;;;;;1.10;0.30;;;;;;;;;;5016745;28;20419;-80
2023/11/05 09:18:36;;;;;;;0.20;0.20;;;;;;;;;;5017339;28;20384;-80
2023/11/05 09:21:04;;;;;;;0.65;0.40;;;;;;;;;;5015119;28;20385;-80
2023/11/05 09:23:30;;;;;;;2.08;1.60;;;;;;;;;;5019013;28;20407;-80
2023/11/05 09:25:56;;;;;;;1.90;1.00;;;;;;;;;;5018543;28;20385;-80
2023/11/05 09:28:22;;;;;;;0.30;0.30;;;;;;;;;;5018168;28;20404;-80
2023/11/05 09:30:48;;;;;;;0.40;0.40;;;;;;;;;;5018738;28;20419;-80
2023/11/05 09:33:17;;;;;;;0.20;0.20;;;;;;;;;;5033650;28;20979;-80
2023/11/05 09:35:45;;;;;;;0.20;0.20;;;;;;;;;;5033433;28;20395;-80
2023/11/05 09:38:11;;;;;;;0.30;0.20;;;;;;;;;;5033134;28;20387;-80
2023/11/05 09:40:37;;;;;;;0.40;0.20;;;;;;;;;;5033435;28;20410;-80
2023/11/05 09:43:09;;;;;;;0.35;0.22;;;;;;;;;;5015564;28;20396;-80
2023/11/05 09:45:36;;;;;;;0.50;0.28;;;;;;;;;;5033310;28;20389;-80
2023/11/05 09:48:06;;;;;;;0.68;0.20;;;;;;;;;;5033737;28;20821;-80
2023/11/05 09:50:40;;;;;;;1.20;0.40;;;;;;;;;;5034189;28;20734;-80
2023/11/05 09:53:10;;;;;;;0.90;0.60;;;;;;;;;;5034799;28;20398;-80
2023/11/05 09:55:38;;;;;;;0.80;0.22;;;;;;;;;;5033522;28;20387;-80
2023/11/05 09:58:05;;;;;;;0.90;0.20;;;;;;;;;;5033260;28;20391;-80
2023/11/05 10:00:31;;;;;;;0.63;0.30;;;;;;;;;;5034556;28;20489;-80
2023/11/05 10:02:58;;;;;;;0.47;0.30;;;;;;;;;;5034055;28;20435;-80
2023/11/05 10:05:25;;;;;;;0.85;0.60;;;;;;;;;;5034696;28;20387;-80
2023/11/05 10:07:52;;;;;;;0.70;0.50;;;;;;;;;;5033904;28;20433;-80
2023/11/05 10:10:18;;;;;;;0.90;0.50;;;;;;;;;;5016467;28;20416;-80
2023/11/05 10:12:44;;;;;;;0.60;0.60;;;;;;;;;;5014864;28;20393;-80
2023/11/05 10:15:10;;;;;;;1.43;0.73;;;;;;;;;;5014824;28;20377;-80
2023/11/05 10:17:36;;;;;;;0.68;0.40;;;;;;;;;;5015670;28;20444;-80
2023/11/05 10:20:03;;;;;;;0.50;0.40;;;;;;;;;;5015607;28;20392;-80
2023/11/05 10:22:29;;;;;;;1.00;0.55;;;;;;;;;;5014936;28;20720;-80
2023/11/05 10:24:55;;;;;;;1.02;0.50;;;;;;;;;;5016274;28;20727;-80
2023/11/05 10:27:28;;;;;;;0.90;0.50;;;;;;;;;;5017157;28;20439;-80
2023/11/05 10:29:57;;;;;;;4.40;0.80;;;;;;;;;;5025204;28;20426;-80
2023/11/05 10:32:23;;;;;;;1.00;0.50;;;;;;;;;;5038117;28;20391;-80
2023/11/05 10:34:55;;;;;;;1.17;0.60;;;;;;;;;;5037128;28;20418;-79
2023/11/05 10:37:21;;;;;;;1.25;0.50;;;;;;;;;;5037644;28;20402;-81
2023/11/05 10:39:48;;;;;;;1.10;0.43;;;;;;;;;;5036125;28;20417;-80
2023/11/05 10:42:14;;;;;;;0.60;0.40;;;;;;;;;;5037716;28;20433;-80
2023/11/05 10:44:45;;;;;;;1.15;0.60;;;;;;;;;;5037030;28;20918;-80
2023/11/05 10:47:11;;;;;;;0.90;0.70;;;;;;;;;;5017921;28;20513;-80
2023/11/05 10:49:38;;;;;;;1.40;0.70;;;;;;;;;;5017019;28;20735;-80
2023/11/05 10:52:05;;;;;;;0.50;0.50;;;;;;;;;;5017048;28;20878;-80
2023/11/05 10:54:31;;;;;;;1.10;0.40;;;;;;;;;;5017488;28;20384;-80
2023/11/05 10:56:57;;;;;;;1.25;0.68;;;;;;;;;;5017853;28;20380;-80
2023/11/05 10:59:38;;;;;;;1.15;0.68;;;;;;;;;;5017795;28;20383;-80
2023/11/05 11:02:06;;;;;;;1.45;0.90;;;;;;;;;;5037440;28;20391;-80
2023/11/05 11:04:32;;;;;;;1.30;0.70;;;;;;;;;;5037824;28;20386;-81
2023/11/05 11:06:59;;;;;;;0.98;0.80;;;;;;;;;;5022992;28;20852;-81
2023/11/05 11:09:27;;;;;;;1.35;0.60;;;;;;;;;;5027613;28;20475;-80
2023/11/05 11:11:59;;;;;;;0.90;0.60;;;;;;;;;;5035889;28;20903;-80
2023/11/05 11:14:25;;;;;;;1.80;1.00;;;;;;;;;;5033604;28;20391;-80
2023/11/05 11:16:51;;;;;;;1.10;0.80;;;;;;;;;;5034189;28;20406;-79
2023/11/05 11:19:18;;;;;;;1.92;1.17;;;;;;;;;;5036357;28;20868;-80
2023/11/05 11:22:02;;;;;;;1.48;1.02;;;;;;;;;;5036738;28;20387;-80
2023/11/05 11:24:30;;;;;;;1.30;1.15;;;;;;;;;;5036920;28;20451;-80
2023/11/05 11:27:03;;;;;;;0.80;0.68;;;;;;;;;;5037358;28;20379;-81
2023/11/05 11:29:31;;;;;;;0.90;0.50;;;;;;;;;;5037835;28;20477;-80
2023/11/05 11:31:57;;;;;;;0.90;0.60;;;;;;;;;;5037425;28;20394;-81
2023/11/05 11:34:23;;;;;;;1.90;0.83;;;;;;;;;;5038335;28;20398;-80
2023/11/05 11:36:56;;;;;;;0.60;0.40;;;;;;;;;;5036052;28;20932;-80
2023/11/05 11:39:23;;;;;;;0.80;0.60;;;;;;;;;;5037431;28;20387;-80
2023/11/05 11:41:49;;;;;;;0.95;0.57;;;;;;;;;;5040677;28;20387;-79
2023/11/05 11:44:15;;;;;;;1.05;0.57;;;;;;;;;;5039556;28;20899;-80
2023/11/05 11:46:41;;;;;;;0.77;0.50;;;;;;;;;;5036089;28;20436;-80
2023/11/05 11:49:13;;;;;;;0.50;0.40;;;;;;;;;;5035874;28;20478;-80
2023/11/05 11:51:40;;;;;;;1.00;0.43;;;;;;;;;;5021296;28;20416;-80
2023/11/05 11:54:07;;;;;;;0.85;0.43;;;;;;;;;;5019329;28;20395;-80
2023/11/05 11:56:33;;;;;;;0.80;0.32;;;;;;;;;;5018227;28;20397;-80
2023/11/05 11:59:05;;;;;;;0.93;0.30;;;;;;;;;;5017367;28;20404;-80
2023/11/05 12:01:31;;;;;;;1.50;0.90;;;;;;;;;;5017735;28;20922;-80
2023/11/05 12:03:58;;;;;;;0.90;0.50;;;;;;;;;;5017480;28;20389;-81
2023/11/05 12:06:26;;;;;;;1.10;0.70;;;;;;;;;;5000881;28;20526;-80
2023/11/05 12:08:53;;;;;;;1.05;0.50;;;;;;;;;;5026422;28;20702;-80
2023/11/05 12:11:20;;;;;;;1.00;0.50;;;;;;;;;;5036255;28;20414;-81
2023/11/05 12:13:46;;;;;;;1.27;0.70;;;;;;;;;;5022826;28;20392;-81
2023/11/05 12:16:14;;;;;;;0.55;0.40;;;;;;;;;;5017758;28;20874;-81
2023/11/05 12:18:40;;;;;;;0.88;0.40;;;;;;;;;;5017875;28;20394;-81
2023/11/05 12:21:10;;;;;;;1.48;0.70;;;;;;;;;;5021852;28;20820;-80
2023/11/05 12:23:36;;;;;;;0.85;0.30;;;;;;;;;;5022566;28;20463;-80
2023/11/05 12:26:03;;;;;;;1.00;0.60;;;;;;;;;;5025762;28;20405;-80
2023/11/05 12:28:29;;;;;;;0.50;0.40;;;;;;;;;;5032295;28;20395;-81
2023/11/05 12:30:56;;;;;;;0.22;0.22;;;;;;;;;;5022115;28;20491;-81
2023/11/05 12:33:23;;;;;;;0.70;0.40;;;;;;;;;;5031458;28;20445;-81
2023/11/05 12:35:49;;;;;;;1.35;0.45;;;;;;;;;;5036845;28;20865;-81
2023/11/05 12:38:15;;;;;;;1.63;0.60;;;;;;;;;;5030925;28;20445;-80
2023/11/05 12:40:41;;;;;;;0.60;0.60;;;;;;;;;;5029168;28;20387;-81
2023/11/05 12:43:07;;;;;;;1.50;0.50;;;;;;;;;;5036752;28;20729;-81
2023/11/05 12:45:33;;;;;;;1.33;0.43;;;;;;;;;;5033010;28;20400;-80
2023/11/05 12:47:59;;;;;;;0.95;0.60;;;;;;;;;;5033263;28;20382;-80
2023/11/05 12:50:25;;;;;;;0.40;0.30;;;;;;;;;;5036644;28;20718;-81
2023/11/05 12:52:51;;;;;;;1.60;0.30;;;;;;;;;;5041003;28;20470;-80
2023/11/05 12:55:17;;;;;;;0.28;0.28;;;;;;;;;;5037726;28;20445;-80
2023/11/05 12:57:47;;;;;;;0.30;0.20;;;;;;;;;;5028327;28;20769;-80
2023/11/05 13:00:13;;;;;;;0.98;0.50;;;;;;;;;;5016581;28;21149;-80
2023/11/05 13:02:39;;;;;;;2.45;1.00;;;;;;;;;;5031776;28;20383;-80
2023/11/05 13:05:09;;;;;;;1.10;0.50;;;;;;;;;;5015060;28;20392;-80
2023/11/05 13:07:35;;;;;;;0.60;0.40;;;;;;;;;;5032908;28;20383;-80
2023/11/05 13:10:04;;;;;;;1.40;0.70;;;;;;;;;;5033163;28;20410;-81
2023/11/05 13:12:33;;;;;;;0.50;0.40;;;;;;;;;;5031159;28;20434;-80
2023/11/05 13:15:00;;;;;;;0.85;0.32;;;;;;;;;;5034333;28;20379;-80
2023/11/05 13:17:28;;;;;;;0.70;0.50;;;;;;;;;;5034279;28;20422;-80
2023/11/05 13:19:54;;;;;;;0.65;0.50;;;;;;;;;;5031793;28;20481;-80
2023/11/05 13:22:21;;;;;;;0.55;0.40;;;;;;;;;;5015161;28;20403;-80
2023/11/05 13:24:47;;;;;;;0.60;0.40;;;;;;;;;;5033921;28;20383;-80
2023/11/05 13:27:13;;;;;;;1.10;0.40;;;;;;;;;;5035207;28;20391;-80
2023/11/05 13:29:39;;;;;;;0.80;0.50;;;;;;;;;;5035295;28;20418;-80
2023/11/05 13:32:05;;;;;;;1.85;0.50;;;;;;;;;;5035793;28;20391;-80
2023/11/05 13:34:32;;;;;;;1.00;0.65;;;;;;;;;;5035701;28;20836;-80
2023/11/05 13:36:58;;;;;;;1.80;0.75;;;;;;;;;;5036396;28;20470;-81
2023/11/05 13:39:24;;;;;;;2.00;0.60;;;;;;;;;;5035761;28;20384;-81
2023/11/05 13:41:50;;;;;;;0.70;0.50;;;;;;;;;;5036297;28;20425;-82
2023/11/05 13:44:16;;;;;;;1.17;0.68;;;;;;;;;;5036188;28;20394;-81
2023/11/05 13:46:42;;;;;;;0.75;0.52;;;;;;;;;;5035439;28;20408;-81
2023/11/05 13:49:08;;;;;;;0.90;0.60;;;;;;;;;;5037011;28;20383;-82
2023/11/05 13:51:34;;;;;;;1.73;1.33;;;;;;;;;;5036016;28;20407;-82
2023/11/05 13:54:00;;;;;;;1.50;0.60;;;;;;;;;;5036182;28;20395;-82
2023/11/05 13:56:26;;;;;;;1.50;0.70;;;;;;;;;;5030719;28;20907;-82
2023/11/05 13:58:52;;;;;;;0.60;0.50;;;;;;;;;;5022382;28;20387;-81
2023/11/05 14:01:19;;;;;;;1.00;0.50;;;;;;;;;;5029917;28;20719;-82
2023/11/05 14:03:48;;;;;;;0.97;0.70;;;;;;;;;;5026767;28;20398;-82
2023/11/05 14:06:14;;;;;;;1.30;0.70;;;;;;;;;;5017533;28;20391;-82
2023/11/05 14:08:40;;;;;;;1.48;1.00;;;;;;;;;;5034796;28;20391;-82
2023/11/05 14:11:07;;;;;;;1.42;0.80;;;;;;;;;;5017214;28;20513;-82
2023/11/05 14:13:36;;;;;;;1.25;0.80;;;;;;;;;;5035881;28;20383;-82
2023/11/05 14:16:02;;;;;;;1.25;0.80;;;;;;;;;;5030867;28;20411;-83
2023/11/05 14:18:28;;;;;;;1.30;0.60;;;;;;;;;;5021351;28;20725;-82
2023/11/05 14:20:54;;;;;;;1.83;0.80;;;;;;;;;;5034980;28;20387;-83
2023/11/05 14:23:22;;;;;;;0.70;0.50;;;;;;;;;;5034681;28;20425;-82
2023/11/05 14:25:48;;;;;;;1.20;0.70;;;;;;;;;;5017314;28;20394;-82
2023/11/05 14:28:14;;;;;;;1.38;0.50;;;;;;;;;;5036251;28;20398;-82
2023/11/05 14:30:40;;;;;;;1.00;0.50;;;;;;;;;;5035591;28;20414;-82
2023/11/05 14:33:06;;;;;;;0.70;0.43;;;;;;;;;;5035877;28;20464;-82
2023/11/05 14:35:35;;;;;;;1.40;0.47;;;;;;;;;;5016044;28;20887;-82
2023/11/05 14:38:01;;;;;;;0.57;0.47;;;;;;;;;;5034946;28;20388;-82
2023/11/05 14:40:31;;;;;;;1.20;0.57;;;;;;;;;;5034491;28;20390;-82